Time;durP1;ratioP1;P1;durP2;ratioP2;P2;SDS_P1;SDS_P2;PMS_P1;PMS_P2;Temp;Humidity;BMP_temperature;BMP_pressure;BME280_temperature;BME280_humidity;BME280_pressure;Samples;Min_cycle;Max_cycle;Signal;HPM_P1;HPM_P2
2024/02/20 00:00:31;;;;;;;4.55;3.33;;;;;;;;;;4977324;28;20054;-62
2024/02/20 00:03:19;;;;;;;6.13;3.70;;;;;;;;;;4973235;28;21615;-62
2024/02/20 00:06:12;;;;;;;5.20;4.30;;;;;;;;;;4973487;28;20593;-61
2024/02/20 00:09:00;;;;;;;6.20;4.40;;;;;;;;;;4975257;28;20055;-66
2024/02/20 00:11:53;;;;;;;5.18;4.15;;;;;;;;;;4979819;28;20058;-66
2024/02/20 00:14:40;;;;;;;6.43;4.68;;;;;;;;;;4975096;28;20108;-66
2024/02/20 00:17:41;;;;;;;6.68;5.03;;;;;;;;;;4989823;28;20057;-66
2024/02/20 00:20:08;;;;;;;5.68;4.50;;;;;;;;;;4996872;28;20053;-65
2024/02/20 00:22:42;;;;;;;6.15;4.88;;;;;;;;;;4998474;28;20124;-62
2024/02/20 00:25:10;;;;;;;6.43;4.82;;;;;;;;;;4996475;28;20646;-62
2024/02/20 00:28:03;;;;;;;7.43;5.30;;;;;;;;;;4994961;28;20072;-62
2024/02/20 00:30:51;;;;;;;5.03;3.90;;;;;;;;;;4999680;28;20132;-62
2024/02/20 00:33:45;;;;;;;5.38;3.95;;;;;;;;;;4997042;28;20062;-66
2024/02/20 00:36:32;;;;;;;5.38;3.75;;;;;;;;;;4999305;28;20050;-64
2024/02/20 00:39:27;;;;;;;4.45;3.45;;;;;;;;;;4994859;28;20054;-65
2024/02/20 00:42:13;;;;;;;3.55;2.72;;;;;;;;;;4995156;28;20494;-65
2024/02/20 00:45:07;;;;;;;4.80;3.47;;;;;;;;;;4996044;28;20116;-65
2024/02/20 00:47:54;;;;;;;5.40;3.67;;;;;;;;;;4998408;28;20145;-64
2024/02/20 00:50:47;;;;;;;5.78;3.70;;;;;;;;;;4997551;28;20053;-54
2024/02/20 00:53:34;;;;;;;6.80;3.60;;;;;;;;;;4996549;28;20077;-55
2024/02/20 00:56:28;;;;;;;4.28;3.38;;;;;;;;;;4999028;28;20057;-54
2024/02/20 00:59:16;;;;;;;4.88;3.47;;;;;;;;;;4997020;28;20066;-55
2024/02/20 01:02:12;;;;;;;4.40;3.30;;;;;;;;;;4994408;28;20053;-64
2024/02/20 01:04:57;;;;;;;4.35;3.55;;;;;;;;;;4994165;28;20054;-65
2024/02/20 01:07:50;;;;;;;4.95;4.05;;;;;;;;;;4994733;28;20330;-66
2024/02/20 01:10:37;;;;;;;4.63;3.40;;;;;;;;;;4997400;28;20069;-66
2024/02/20 01:13:32;;;;;;;5.05;3.85;;;;;;;;;;4978175;28;20135;-65
2024/02/20 01:16:25;;;;;;;6.15;4.60;;;;;;;;;;4990621;28;20470;-65
2024/02/20 01:19:25;;;;;;;6.05;4.78;;;;;;;;;;4994273;28;20057;-63
2024/02/20 01:22:12;;;;;;;6.60;4.88;;;;;;;;;;4992755;28;20059;-63
2024/02/20 01:25:06;;;;;;;5.97;4.68;;;;;;;;;;4988821;28;20139;-63
2024/02/20 01:27:54;;;;;;;6.28;4.88;;;;;;;;;;4996131;28;20940;-62
2024/02/20 01:30:47;;;;;;;6.63;5.07;;;;;;;;;;4996039;28;20056;-55
2024/02/20 01:33:35;;;;;;;8.25;5.13;;;;;;;;;;4995814;28;20903;-62
2024/02/20 01:36:29;;;;;;;8.05;5.50;;;;;;;;;;4996847;28;20055;-62
2024/02/20 01:39:16;;;;;;;6.22;5.13;;;;;;;;;;4990927;28;20449;-62
2024/02/20 01:42:10;;;;;;;7.25;4.53;;;;;;;;;;4997407;28;20058;-63
2024/02/20 01:44:57;;;;;;;6.40;4.68;;;;;;;;;;4988861;28;20057;-63
2024/02/20 01:47:51;;;;;;;5.78;4.22;;;;;;;;;;4995488;28;20149;-48
2024/02/20 01:50:39;;;;;;;6.28;4.15;;;;;;;;;;4995436;28;20050;-46
2024/02/20 01:53:32;;;;;;;4.90;3.70;;;;;;;;;;4996119;28;20066;-49
2024/02/20 01:56:22;;;;;;;6.18;4.32;;;;;;;;;;4985172;28;20046;-48
2024/02/20 01:59:16;;;;;;;5.90;4.00;;;;;;;;;;4992509;28;20054;-49
2024/02/20 02:02:05;;;;;;;5.93;4.88;;;;;;;;;;4993340;28;20478;-65
2024/02/20 02:04:57;;;;;;;8.05;5.15;;;;;;;;;;4992716;28;20568;-65
2024/02/20 02:07:45;;;;;;;7.80;5.10;;;;;;;;;;4991821;28;20144;-65
2024/02/20 02:10:38;;;;;;;5.68;4.57;;;;;;;;;;4992799;28;20093;-66
2024/02/20 02:13:25;;;;;;;7.40;5.28;;;;;;;;;;4996107;28;20085;-65
2024/02/20 02:16:32;;;;;;;5.78;4.13;;;;;;;;;;4994695;28;20526;-61
2024/02/20 02:19:34;;;;;;;5.63;4.32;;;;;;;;;;4994243;28;20291;-58
2024/02/20 02:22:28;;;;;;;5.53;4.47;;;;;;;;;;4993310;28;20085;-59
2024/02/20 02:25:24;;;;;;;6.22;4.70;;;;;;;;;;4988226;28;20061;-57
2024/02/20 02:28:16;;;;;;;7.55;5.57;;;;;;;;;;4993611;28;20104;-61
2024/02/20 02:31:04;;;;;;;6.47;5.18;;;;;;;;;;4994419;28;20050;-51
2024/02/20 02:33:58;;;;;;;5.82;4.15;;;;;;;;;;4994675;28;20597;-50
2024/02/20 02:36:45;;;;;;;6.72;5.03;;;;;;;;;;4993623;28;20052;-54
2024/02/20 02:39:39;;;;;;;7.63;5.95;;;;;;;;;;4995592;28;20046;-53
2024/02/20 02:42:33;;;;;;;5.60;4.43;;;;;;;;;;4995947;28;20046;-55
2024/02/20 02:45:21;;;;;;;10.00;4.60;;;;;;;;;;4988931;28;20090;-56
2024/02/20 02:48:14;;;;;;;7.28;5.03;;;;;;;;;;4991939;28;20568;-55
2024/02/20 02:51:02;;;;;;;6.00;4.75;;;;;;;;;;4992631;28;20568;-54
2024/02/20 02:53:55;;;;;;;5.97;4.32;;;;;;;;;;4987130;28;20482;-57
2024/02/20 02:56:43;;;;;;;6.85;4.63;;;;;;;;;;4994614;28;20046;-62
2024/02/20 02:59:36;;;;;;;6.45;4.80;;;;;;;;;;4996534;28;20108;-63
2024/02/20 03:02:25;;;;;;;7.10;5.13;;;;;;;;;;4994944;28;20108;-64
2024/02/20 03:05:18;;;;;;;6.53;4.60;;;;;;;;;;4984729;28;20060;-63
2024/02/20 03:08:06;;;;;;;5.97;4.65;;;;;;;;;;4989093;28;20062;-62
2024/02/20 03:11:00;;;;;;;6.45;4.82;;;;;;;;;;4993857;28;20170;-63
2024/02/20 03:13:48;;;;;;;8.65;5.63;;;;;;;;;;4981027;28;20052;-64
2024/02/20 03:16:54;;;;;;;7.68;5.35;;;;;;;;;;4992098;28;20054;-65
2024/02/20 03:19:48;;;;;;;8.27;5.47;;;;;;;;;;4995762;28;20490;-65
2024/02/20 03:22:43;;;;;;;6.80;5.25;;;;;;;;;;4994291;28;20046;-66
2024/02/20 03:25:30;;;;;;;7.55;5.72;;;;;;;;;;4991806;28;20058;-53
2024/02/20 03:28:24;;;;;;;8.63;6.18;;;;;;;;;;4986761;28;20081;-54
2024/02/20 03:31:13;;;;;;;6.53;4.90;;;;;;;;;;4989005;28;20433;-47
2024/02/20 03:34:06;;;;;;;11.13;6.13;;;;;;;;;;4997152;28;20111;-46
2024/02/20 03:36:53;;;;;;;14.00;6.18;;;;;;;;;;4997627;28;20121;-48
2024/02/20 03:39:46;;;;;;;8.43;6.05;;;;;;;;;;4992960;28;20133;-47
2024/02/20 03:42:34;;;;;;;12.13;5.93;;;;;;;;;;4994650;28;20058;-48
2024/02/20 03:45:27;;;;;;;10.00;5.50;;;;;;;;;;4990075;28;20140;-62
2024/02/20 03:48:21;;;;;;;9.00;5.70;;;;;;;;;;4992753;28;20202;-62
2024/02/20 03:51:18;;;;;;;14.18;6.22;;;;;;;;;;4994171;28;20058;-62
2024/02/20 03:54:10;;;;;;;15.75;8.02;;;;;;;;;;4992422;28;20147;-61
2024/02/20 03:56:57;;;;;;;16.20;7.85;;;;;;;;;;4992544;28;20537;-61
2024/02/20 03:59:50;;;;;;;10.90;7.03;;;;;;;;;;4983797;28;20061;-63
2024/02/20 04:02:40;;;;;;;20.27;8.27;;;;;;;;;;4994967;28;20061;-63
2024/02/20 04:05:33;;;;;;;11.25;7.13;;;;;;;;;;4994126;28;20058;-62
2024/02/20 04:08:20;;;;;;;15.15;8.15;;;;;;;;;;4996505;28;20129;-63
2024/02/20 04:11:13;;;;;;;11.35;6.30;;;;;;;;;;4997453;28;20054;-62
2024/02/20 04:14:01;;;;;;;18.80;8.32;;;;;;;;;;4991968;28;20065;-55
2024/02/20 04:17:01;;;;;;;19.40;7.82;;;;;;;;;;4994727;28;20058;-56
2024/02/20 04:19:48;;;;;;;10.80;6.80;;;;;;;;;;4990013;28;20356;-54
2024/02/20 04:22:42;;;;;;;15.52;8.13;;;;;;;;;;4993687;28;20054;-56
2024/02/20 04:25:36;;;;;;;20.00;7.63;;;;;;;;;;4991675;28;20562;-55
2024/02/20 04:28:35;;;;;;;12.30;7.07;;;;;;;;;;4995184;28;20612;-66
2024/02/20 04:31:17;;;;;;;11.00;5.93;;;;;;;;;;4992985;28;20050;-67
2024/02/20 04:34:11;;;;;;;13.48;6.22;;;;;;;;;;4993442;28;20042;-66
2024/02/20 04:36:59;;;;;;;15.68;6.90;;;;;;;;;;4992823;28;20410;-67
2024/02/20 04:39:52;;;;;;;9.77;5.90;;;;;;;;;;4994055;28;20145;-54
2024/02/20 04:42:40;;;;;;;13.75;6.70;;;;;;;;;;4994600;28;20188;-59
2024/02/20 04:45:33;;;;;;;9.98;5.93;;;;;;;;;;4991348;28;20058;-58
2024/02/20 04:48:20;;;;;;;12.82;7.15;;;;;;;;;;4993693;28;20058;-59
2024/02/20 04:51:14;;;;;;;15.13;7.35;;;;;;;;;;4990505;28;20141;-58
2024/02/20 04:54:02;;;;;;;15.57;6.75;;;;;;;;;;4993811;28;20058;-60
2024/02/20 04:56:55;;;;;;;10.25;6.40;;;;;;;;;;4995239;28;20054;-57
2024/02/20 04:59:42;;;;;;;15.57;6.85;;;;;;;;;;4993385;28;20058;-59
2024/02/20 05:02:38;;;;;;;13.02;6.00;;;;;;;;;;4995683;28;20053;-57
2024/02/20 05:05:25;;;;;;;17.55;7.22;;;;;;;;;;4984821;28;20068;-55
2024/02/20 05:08:19;;;;;;;14.15;6.95;;;;;;;;;;4994515;28;20201;-47
2024/02/20 05:11:06;;;;;;;9.52;5.88;;;;;;;;;;4988721;28;20240;-55
2024/02/20 05:14:01;;;;;;;11.02;5.90;;;;;;;;;;4998059;28;20674;-56
2024/02/20 05:16:54;;;;;;;13.82;7.07;;;;;;;;;;4993790;28;20074;-56
2024/02/20 05:19:55;;;;;;;17.42;7.38;;;;;;;;;;4988169;28;20604;-56
2024/02/20 05:22:42;;;;;;;14.65;6.40;;;;;;;;;;4994867;28;20053;-55
2024/02/20 05:25:36;;;;;;;12.32;5.88;;;;;;;;;;4990618;28;20053;-50
2024/02/20 05:28:24;;;;;;;10.95;6.13;;;;;;;;;;4991513;28;20104;-56
2024/02/20 05:31:31;;;;;;;12.18;6.07;;;;;;;;;;4984675;28;20058;-58
2024/02/20 05:34:24;;;;;;;11.57;6.10;;;;;;;;;;4988798;28;20440;-55
2024/02/20 05:37:12;;;;;;;19.80;7.07;;;;;;;;;;4986611;28;20458;-55
2024/02/20 05:40:10;;;;;;;15.77;6.85;;;;;;;;;;4988958;28;20375;-56
2024/02/20 05:42:53;;;;;;;13.17;6.50;;;;;;;;;;4987035;28;20046;-53
2024/02/20 05:45:47;;;;;;;14.23;7.38;;;;;;;;;;4988403;28;20065;-52
2024/02/20 05:48:36;;;;;;;16.35;6.43;;;;;;;;;;4990124;28;20053;-65
2024/02/20 05:51:30;;;;;;;8.95;5.45;;;;;;;;;;4991971;28;20054;-65
2024/02/20 05:54:16;;;;;;;12.75;5.97;;;;;;;;;;4991747;28;20444;-64
2024/02/20 05:57:11;;;;;;;8.88;5.25;;;;;;;;;;4991438;28;20065;-65
2024/02/20 05:59:58;;;;;;;14.65;7.63;;;;;;;;;;4978786;28;20049;-67
2024/02/20 06:02:51;;;;;;;12.85;6.68;;;;;;;;;;4978546;28;20054;-63
2024/02/20 06:05:39;;;;;;;9.13;5.60;;;;;;;;;;4995739;28;20069;-67
2024/02/20 06:08:32;;;;;;;15.82;7.43;;;;;;;;;;4993523;28;20121;-67
2024/02/20 06:11:25;;;;;;;15.05;6.68;;;;;;;;;;4997351;28;20559;-67
2024/02/20 06:14:16;;;;;;;13.05;6.68;;;;;;;;;;4998563;28;20072;-67
2024/02/20 06:17:05;;;;;;;11.38;6.80;;;;;;;;;;4994557;28;20056;-67
2024/02/20 06:20:11;;;;;;;13.88;6.10;;;;;;;;;;4998264;28;20058;-67
2024/02/20 06:22:59;;;;;;;12.02;6.07;;;;;;;;;;4996076;28;20509;-47
2024/02/20 06:25:52;;;;;;;9.48;5.18;;;;;;;;;;4993541;28;20062;-46
2024/02/20 06:28:46;;;;;;;11.00;4.95;;;;;;;;;;4996997;28;20062;-46
2024/02/20 06:31:40;;;;;;;10.15;5.05;;;;;;;;;;4994718;28;20115;-46
2024/02/20 06:34:27;;;;;;;8.95;4.90;;;;;;;;;;4994152;28;20481;-46
2024/02/20 06:37:21;;;;;;;8.60;5.18;;;;;;;;;;4994552;28;20056;-48
2024/02/20 06:40:09;;;;;;;11.88;6.40;;;;;;;;;;4998871;28;20057;-63
2024/02/20 06:43:02;;;;;;;8.73;5.80;;;;;;;;;;4997252;28;20077;-63
2024/02/20 06:45:50;;;;;;;9.95;5.53;;;;;;;;;;4991827;28;20062;-63
2024/02/20 06:48:46;;;;;;;14.40;6.93;;;;;;;;;;4982481;28;20062;-63
2024/02/20 06:51:32;;;;;;;16.55;6.50;;;;;;;;;;4993334;28;20050;-63
2024/02/20 06:54:25;;;;;;;21.73;7.55;;;;;;;;;;4992457;28;20151;-62
2024/02/20 06:57:13;;;;;;;21.98;8.65;;;;;;;;;;4994134;28;20046;-61
2024/02/20 07:00:11;;;;;;;22.55;7.82;;;;;;;;;;4994371;28;20423;-66
2024/02/20 07:02:56;;;;;;;19.33;7.88;;;;;;;;;;4994590;28;20050;-64
2024/02/20 07:05:50;;;;;;;20.77;7.65;;;;;;;;;;4995095;28;20061;-64
2024/02/20 07:08:42;;;;;;;15.75;6.70;;;;;;;;;;4996192;28;20511;-64
2024/02/20 07:11:33;;;;;;;16.70;6.55;;;;;;;;;;4996196;28;20049;-65
2024/02/20 07:14:27;;;;;;;11.68;5.93;;;;;;;;;;4996154;28;20089;-65
2024/02/20 07:17:28;;;;;;;12.27;5.53;;;;;;;;;;4989681;28;20139;-46
2024/02/20 07:20:28;;;;;;;22.58;6.30;;;;;;;;;;4995349;28;20054;-63
2024/02/20 07:23:16;;;;;;;17.67;6.38;;;;;;;;;;4998843;28;20085;-62
2024/02/20 07:26:09;;;;;;;17.50;5.93;;;;;;;;;;4989974;28;20058;-63
2024/02/20 07:28:57;;;;;;;9.57;4.57;;;;;;;;;;4997934;28;20461;-63
2024/02/20 07:31:50;;;;;;;9.20;4.82;;;;;;;;;;4996010;28;20108;-63
2024/02/20 07:34:38;;;;;;;15.27;6.63;;;;;;;;;;4992725;28;20143;-59
2024/02/20 07:37:31;;;;;;;16.73;5.72;;;;;;;;;;4993782;28;20068;-64
2024/02/20 07:40:19;;;;;;;21.73;6.57;;;;;;;;;;4993992;28;20154;-64
2024/02/20 07:43:12;;;;;;;15.50;5.85;;;;;;;;;;4995587;28;20121;-64
2024/02/20 07:46:04;;;;;;;20.88;6.85;;;;;;;;;;4998193;28;20042;-64
2024/02/20 07:48:57;;;;;;;14.45;5.50;;;;;;;;;;4994414;28;21618;-64
2024/02/20 07:51:45;;;;;;;27.83;6.97;;;;;;;;;;4993793;28;20065;-64
2024/02/20 07:54:40;;;;;;;11.48;6.15;;;;;;;;;;4998382;28;20057;-65
2024/02/20 07:57:33;;;;;;;20.00;6.13;;;;;;;;;;4998894;28;20457;-64
2024/02/20 08:00:21;;;;;;;20.83;6.53;;;;;;;;;;5000271;28;20659;-65
2024/02/20 08:03:13;;;;;;;17.60;6.28;;;;;;;;;;5002356;28;20068;-66
2024/02/20 08:06:08;;;;;;;19.77;6.18;;;;;;;;;;4998568;28;20061;-64
2024/02/20 08:09:02;;;;;;;20.65;6.55;;;;;;;;;;5001070;28;20604;-65
2024/02/20 08:11:55;;;;;;;16.00;5.60;;;;;;;;;;4999966;28;20056;-62
2024/02/20 08:14:49;;;;;;;13.30;5.95;;;;;;;;;;4996201;28;20390;-66
2024/02/20 08:17:43;;;;;;;15.65;6.20;;;;;;;;;;4995982;28;20093;-67
2024/02/20 08:20:37;;;;;;;11.23;5.10;;;;;;;;;;4996660;28;20054;-67
2024/02/20 08:23:24;;;;;;;16.20;6.15;;;;;;;;;;4997542;28;20057;-66
2024/02/20 08:26:17;;;;;;;11.35;5.68;;;;;;;;;;4997012;28;20112;-67
2024/02/20 08:29:04;;;;;;;19.80;6.10;;;;;;;;;;4996255;28;20042;-46
2024/02/20 08:31:58;;;;;;;12.73;5.60;;;;;;;;;;4999356;28;20116;-63
2024/02/20 08:34:46;;;;;;;15.40;6.10;;;;;;;;;;4996873;28;20618;-63
2024/02/20 08:37:39;;;;;;;10.68;5.50;;;;;;;;;;4999839;28;20149;-63
2024/02/20 08:40:27;;;;;;;11.30;5.22;;;;;;;;;;4998926;28;20046;-63
2024/02/20 08:43:20;;;;;;;9.25;5.15;;;;;;;;;;4998393;28;20050;-63
2024/02/20 08:46:08;;;;;;;11.27;5.53;;;;;;;;;;4996903;28;20065;-63
2024/02/20 08:49:04;;;;;;;12.25;5.25;;;;;;;;;;4996924;28;20577;-67
2024/02/20 08:51:59;;;;;;;12.15;5.90;;;;;;;;;;4984133;28;20046;-63
2024/02/20 08:54:46;;;;;;;8.68;4.93;;;;;;;;;;4998230;28;20143;-63
2024/02/20 08:57:41;;;;;;;15.07;6.10;;;;;;;;;;4999122;28;20694;-63
2024/02/20 09:00:28;;;;;;;10.55;5.18;;;;;;;;;;5000536;28;20172;-63
2024/02/20 09:03:28;;;;;;;14.55;7.28;;;;;;;;;;4997207;28;20049;-63
2024/02/20 09:06:11;;;;;;;10.77;5.68;;;;;;;;;;4997228;28;20065;-65
2024/02/20 09:09:05;;;;;;;15.13;7.18;;;;;;;;;;4997485;28;20082;-48
2024/02/20 09:11:53;;;;;;;11.52;6.75;;;;;;;;;;4997406;28;20049;-49
2024/02/20 09:14:46;;;;;;;19.08;8.18;;;;;;;;;;5000239;28;20049;-47
2024/02/20 09:17:40;;;;;;;12.63;5.93;;;;;;;;;;4992728;28;20078;-51
2024/02/20 09:20:38;;;;;;;13.90;6.53;;;;;;;;;;5000031;28;20120;-47
2024/02/20 09:23:26;;;;;;;12.38;6.68;;;;;;;;;;4995259;28;20054;-51
2024/02/20 09:26:21;;;;;;;13.20;6.15;;;;;;;;;;4997907;28;20065;-59
2024/02/20 09:29:14;;;;;;;14.98;6.20;;;;;;;;;;4997600;28;20108;-60
2024/02/20 09:32:08;;;;;;;13.25;6.18;;;;;;;;;;4995424;28;20592;-60
2024/02/20 09:34:55;;;;;;;10.40;6.05;;;;;;;;;;4995891;28;20050;-60
2024/02/20 09:37:50;;;;;;;10.95;5.97;;;;;;;;;;4998765;28;20127;-61
2024/02/20 09:40:43;;;;;;;11.90;5.90;;;;;;;;;;4993588;28;20058;-57
2024/02/20 09:43:39;;;;;;;10.48;6.18;;;;;;;;;;4993449;28;20054;-60
2024/02/20 09:46:27;;;;;;;14.57;6.50;;;;;;;;;;4991585;28;20108;-60
2024/02/20 09:49:21;;;;;;;10.85;5.97;;;;;;;;;;4998774;28;21246;-60
2024/02/20 09:52:09;;;;;;;12.90;6.45;;;;;;;;;;4997785;28;20145;-59
2024/02/20 09:55:03;;;;;;;9.55;5.72;;;;;;;;;;4995154;28;20045;-60
2024/02/20 09:57:51;;;;;;;12.10;5.85;;;;;;;;;;4996824;28;20078;-59
2024/02/20 10:00:44;;;;;;;8.85;5.00;;;;;;;;;;4992245;28;20177;-60
2024/02/20 10:03:38;;;;;;;6.88;4.38;;;;;;;;;;4993069;28;20069;-62
2024/02/20 10:06:33;;;;;;;7.20;4.07;;;;;;;;;;4991391;28;20565;-63
2024/02/20 10:09:21;;;;;;;7.45;4.30;;;;;;;;;;4994410;28;20050;-63
2024/02/20 10:12:21;;;;;;;6.30;3.70;;;;;;;;;;4994113;28;20058;-64
2024/02/20 10:15:15;;;;;;;6.70;4.38;;;;;;;;;;4992912;28;20054;-62
2024/02/20 10:18:17;;;;;;;9.93;4.45;;;;;;;;;;4993598;28;20069;-63
2024/02/20 10:21:06;;;;;;;7.25;4.20;;;;;;;;;;4995846;28;20054;-56
2024/02/20 10:24:02;;;;;;;7.60;4.40;;;;;;;;;;4990087;28;20050;-62
2024/02/20 10:27:01;;;;;;;9.63;4.93;;;;;;;;;;4994612;28;20049;-62
2024/02/20 10:29:55;;;;;;;8.45;4.32;;;;;;;;;;4997488;28;20068;-63
2024/02/20 10:32:43;;;;;;;11.05;4.80;;;;;;;;;;4994850;28;20476;-62
2024/02/20 10:35:39;;;;;;;6.72;4.10;;;;;;;;;;4997418;28;20042;-63
2024/02/20 10:38:24;;;;;;;7.22;4.45;;;;;;;;;;4994418;28;20107;-48
2024/02/20 10:41:22;;;;;;;8.57;4.53;;;;;;;;;;4994995;28;20605;-59
2024/02/20 10:44:05;;;;;;;7.90;4.50;;;;;;;;;;4992392;28;20062;-60
2024/02/20 10:47:02;;;;;;;7.63;4.15;;;;;;;;;;4995815;28;20061;-55
2024/02/20 10:49:50;;;;;;;6.82;3.92;;;;;;;;;;4995194;28;20166;-58
2024/02/20 10:52:44;;;;;;;6.65;4.57;;;;;;;;;;4997215;28;20054;-61
2024/02/20 10:55:38;;;;;;;6.65;4.30;;;;;;;;;;4994425;28;20050;-57
2024/02/20 10:58:28;;;;;;;6.70;4.35;;;;;;;;;;4994136;28;20136;-58
2024/02/20 11:01:23;;;;;;;7.20;3.90;;;;;;;;;;4995115;28;20050;-49
2024/02/20 11:04:09;;;;;;;8.63;4.35;;;;;;;;;;4997065;28;20140;-56
2024/02/20 11:07:05;;;;;;;7.68;5.03;;;;;;;;;;4995881;28;20065;-54
2024/02/20 11:10:02;;;;;;;;;;;;;;;;;;4999762;28;20052;-52
2024/02/20 11:12:50;;;;;;;10.65;4.90;;;;;;;;;;4992013;28;19929;-55
2024/02/20 11:15:44;;;;;;;9.00;5.20;;;;;;;;;;4993471;28;20544;-57
2024/02/20 11:18:44;;;;;;;7.07;4.55;;;;;;;;;;4993462;28;20075;-67
2024/02/20 11:21:38;;;;;;;8.10;5.07;;;;;;;;;;4993850;28;20077;-67
2024/02/20 11:24:36;;;;;;;8.48;4.82;;;;;;;;;;4992726;28;20531;-67
2024/02/20 11:27:28;;;;;;;10.77;5.63;;;;;;;;;;4994457;28;20054;-67
2024/02/20 11:30:22;;;;;;;9.13;5.30;;;;;;;;;;4995558;28;20421;-67
2024/02/20 11:33:14;;;;;;;10.60;5.38;;;;;;;;;;4997883;28;20077;-47
2024/02/20 11:36:07;;;;;;;9.10;5.00;;;;;;;;;;4995902;28;20077;-67
2024/02/20 11:39:02;;;;;;;8.18;5.03;;;;;;;;;;5000071;28;20050;-67
2024/02/20 11:41:57;;;;;;;6.95;4.45;;;;;;;;;;4996269;28;20474;-66
2024/02/20 11:44:44;;;;;;;7.53;4.45;;;;;;;;;;4998285;28;20050;-66
2024/02/20 11:47:39;;;;;;;8.35;4.63;;;;;;;;;;5002216;28;20482;-67
2024/02/20 11:50:28;;;;;;;6.80;5.28;;;;;;;;;;4997377;28;20061;-67
2024/02/20 11:53:21;;;;;;;5.50;4.72;;;;;;;;;;4988604;28;20533;-58
2024/02/20 11:56:08;;;;;;;9.25;4.70;;;;;;;;;;4997447;28;20058;-61
2024/02/20 11:59:02;;;;;;;8.55;5.60;;;;;;;;;;4998669;28;20050;-57
2024/02/20 12:01:50;;;;;;;6.05;4.68;;;;;;;;;;4995018;28;20417;-58
2024/02/20 12:04:43;;;;;;;9.35;4.90;;;;;;;;;;5001103;28;20046;-61
2024/02/20 12:07:31;;;;;;;7.03;4.18;;;;;;;;;;4994427;28;20085;-60
2024/02/20 12:10:25;;;;;;;6.03;4.25;;;;;;;;;;4995500;28;20054;-58
2024/02/20 12:13:13;;;;;;;7.80;4.90;;;;;;;;;;4999486;28;20054;-63
2024/02/20 12:16:22;;;;;;;6.65;4.40;;;;;;;;;;4991240;28;20145;-63
2024/02/20 12:19:27;;;;;;;6.53;4.78;;;;;;;;;;4995711;28;20054;-63
2024/02/20 12:22:17;;;;;;;6.35;4.07;;;;;;;;;;4997680;28;20137;-63
2024/02/20 12:25:11;;;;;;;6.25;4.43;;;;;;;;;;4996323;28;20046;-62
2024/02/20 12:27:59;;;;;;;5.43;4.10;;;;;;;;;;4995201;28;20584;-63
2024/02/20 12:30:52;;;;;;;5.90;3.38;;;;;;;;;;4998192;28;20078;-48
2024/02/20 12:33:40;;;;;;;8.80;3.67;;;;;;;;;;4999209;28;20060;-52
2024/02/20 12:36:36;;;;;;;5.85;3.63;;;;;;;;;;4998456;28;20061;-52
2024/02/20 12:39:25;;;;;;;6.30;3.65;;;;;;;;;;4996538;28;20214;-52
2024/02/20 12:42:16;;;;;;;3.75;3.05;;;;;;;;;;4994243;28;20510;-48
2024/02/20 12:45:05;;;;;;;8.75;3.35;;;;;;;;;;4996315;28;20116;-51
2024/02/20 12:47:58;;;;;;;4.13;2.95;;;;;;;;;;4996198;28;20127;-63
2024/02/20 12:50:45;;;;;;;3.55;2.63;;;;;;;;;;4992464;28;20155;-53
2024/02/20 12:53:38;;;;;;;4.75;2.95;;;;;;;;;;4996106;28;20147;-55
2024/02/20 12:56:28;;;;;;;3.88;2.60;;;;;;;;;;4996222;28;20179;-56
2024/02/20 12:59:20;;;;;;;3.92;2.85;;;;;;;;;;4997633;28;20618;-52
2024/02/20 13:02:14;;;;;;;4.50;3.00;;;;;;;;;;4993155;28;20472;-53
2024/02/20 13:05:08;;;;;;;3.35;2.67;;;;;;;;;;4993386;28;20069;-62
2024/02/20 13:07:56;;;;;;;3.03;2.30;;;;;;;;;;4996275;28;20050;-59
2024/02/20 13:10:49;;;;;;;3.33;2.40;;;;;;;;;;4994944;28;20065;-57
2024/02/20 13:13:37;;;;;;;2.67;2.47;;;;;;;;;;4996194;28;20533;-58
2024/02/20 13:16:31;;;;;;;4.25;3.17;;;;;;;;;;4995488;28;20046;-61
2024/02/20 13:19:24;;;;;;;4.20;2.70;;;;;;;;;;4994379;28;20059;-60
2024/02/20 13:22:18;;;;;;;6.72;3.40;;;;;;;;;;4998422;28;20046;-62
2024/02/20 13:25:08;;;;;;;6.68;3.08;;;;;;;;;;4995227;28;20529;-65
2024/02/20 13:27:59;;;;;;;2.75;2.30;;;;;;;;;;4995948;28;20053;-66
2024/02/20 13:30:47;;;;;;;4.95;2.42;;;;;;;;;;4995158;28;20253;-67
2024/02/20 13:33:40;;;;;;;4.15;2.30;;;;;;;;;;4995357;28;20046;-66
2024/02/20 13:36:28;;;;;;;3.05;1.83;;;;;;;;;;4994328;28;20058;-66
2024/02/20 13:39:22;;;;;;;2.35;1.77;;;;;;;;;;4993354;28;20073;-66
2024/02/20 13:42:09;;;;;;;2.47;2.10;;;;;;;;;;4997047;28;20066;-61
2024/02/20 13:45:03;;;;;;;4.00;1.98;;;;;;;;;;4997190;28;21482;-66
2024/02/20 13:47:50;;;;;;;3.50;1.63;;;;;;;;;;4995460;28;20050;-65
2024/02/20 13:50:47;;;;;;;4.55;2.00;;;;;;;;;;4996957;28;20046;-66
2024/02/20 13:53:34;;;;;;;3.75;1.80;;;;;;;;;;4996090;28;20120;-65
2024/02/20 13:56:29;;;;;;;3.45;1.80;;;;;;;;;;4994695;28;20056;-65
2024/02/20 13:59:16;;;;;;;2.70;1.50;;;;;;;;;;4996210;28;20117;-66
2024/02/20 14:02:11;;;;;;;2.17;1.30;;;;;;;;;;4993767;28;20054;-59
2024/02/20 14:04:57;;;;;;;3.72;1.60;;;;;;;;;;4992924;28;20120;-63
2024/02/20 14:07:52;;;;;;;8.27;1.40;;;;;;;;;;4995977;28;20060;-63
2024/02/20 14:10:38;;;;;;;3.47;1.42;;;;;;;;;;4995946;28;20086;-63
2024/02/20 14:13:31;;;;;;;3.90;1.50;;;;;;;;;;4995378;28;20104;-63
2024/02/20 14:16:19;;;;;;;2.75;1.20;;;;;;;;;;4994885;28;20058;-64
2024/02/20 14:19:19;;;;;;;5.43;1.48;;;;;;;;;;4991489;28;20061;-51
2024/02/20 14:22:06;;;;;;;4.13;1.50;;;;;;;;;;4994961;28;20061;-53
2024/02/20 14:25:02;;;;;;;4.00;1.42;;;;;;;;;;4994600;28;20054;-46
2024/02/20 14:27:49;;;;;;;3.38;1.40;;;;;;;;;;4997658;28;20065;-54
2024/02/20 14:30:44;;;;;;;3.83;1.40;;;;;;;;;;4995232;28;20052;-51
2024/02/20 14:33:31;;;;;;;4.90;1.90;;;;;;;;;;4998398;28;20595;-49
2024/02/20 14:36:25;;;;;;;4.35;1.98;;;;;;;;;;4995416;28;20058;-49
2024/02/20 14:39:13;;;;;;;4.93;2.17;;;;;;;;;;4998241;28;20492;-66
2024/02/20 14:42:06;;;;;;;6.15;2.35;;;;;;;;;;4994938;28;20058;-57
2024/02/20 14:44:54;;;;;;;6.53;1.75;;;;;;;;;;4995279;28;20050;-61
2024/02/20 14:47:49;;;;;;;5.88;1.38;;;;;;;;;;4996903;28;20136;-58
2024/02/20 14:50:35;;;;;;;7.03;1.98;;;;;;;;;;4993641;28;20046;-59
2024/02/20 14:53:29;;;;;;;7.13;2.40;;;;;;;;;;4995655;28;20592;-61
2024/02/20 14:56:23;;;;;;;13.73;2.67;;;;;;;;;;4995338;28;20058;-48
2024/02/20 14:59:16;;;;;;;18.25;2.22;;;;;;;;;;4994436;28;20120;-65
2024/02/20 15:02:10;;;;;;;25.35;3.20;;;;;;;;;;4994244;28;20610;-65
2024/02/20 15:04:58;;;;;;;18.27;2.92;;;;;;;;;;4996422;28;20050;-66
2024/02/20 15:07:52;;;;;;;23.77;3.05;;;;;;;;;;4997042;28;20058;-65
2024/02/20 15:10:39;;;;;;;21.45;2.92;;;;;;;;;;4993746;28;20112;-66
2024/02/20 15:13:33;;;;;;;17.98;3.63;;;;;;;;;;4996976;28;20505;-47
2024/02/20 15:16:28;;;;;;;29.02;4.13;;;;;;;;;;4996921;28;20069;-62
2024/02/20 15:19:21;;;;;;;28.23;3.85;;;;;;;;;;4997411;28;20081;-59
2024/02/20 15:22:15;;;;;;;26.48;3.92;;;;;;;;;;4996869;28;20066;-59
2024/02/20 15:25:05;;;;;;;32.85;4.80;;;;;;;;;;4996112;28;20445;-59
2024/02/20 15:27:58;;;;;;;35.88;4.10;;;;;;;;;;4995273;28;20058;-62
2024/02/20 15:30:43;;;;;;;20.33;4.18;;;;;;;;;;4997926;28;20068;-56
2024/02/20 15:33:38;;;;;;;25.42;4.05;;;;;;;;;;4996745;28;20089;-59
2024/02/20 15:36:24;;;;;;;32.85;4.15;;;;;;;;;;5002052;28;20246;-48
2024/02/20 15:39:18;;;;;;;42.25;4.53;;;;;;;;;;4999050;28;20272;-48
2024/02/20 15:42:05;;;;;;;28.25;5.10;;;;;;;;;;4998749;28;20108;-48
2024/02/20 15:44:59;;;;;;;29.92;4.20;;;;;;;;;;5003433;28;20053;-49
2024/02/20 15:47:46;;;;;;;39.13;7.00;;;;;;;;;;4999402;28;20089;-46
2024/02/20 15:50:40;;;;;;;41.92;6.53;;;;;;;;;;4994570;28;20072;-65
2024/02/20 15:53:28;;;;;;;32.87;5.23;;;;;;;;;;4998602;28;20086;-66
2024/02/20 15:56:21;;;;;;;42.42;5.32;;;;;;;;;;4996215;28;20057;-67
2024/02/20 15:59:09;;;;;;;38.47;4.85;;;;;;;;;;5001853;28;20069;-64
2024/02/20 16:02:02;;;;;;;43.38;6.18;;;;;;;;;;4999843;28;20060;-66
2024/02/20 16:04:50;;;;;;;55.92;6.35;;;;;;;;;;4997272;28;20465;-65
2024/02/20 16:07:46;;;;;;;60.13;7.50;;;;;;;;;;4997194;28;20228;-66
2024/02/20 16:10:40;;;;;;;60.55;6.85;;;;;;;;;;4996837;28;20050;-63
2024/02/20 16:13:27;;;;;;;63.30;6.82;;;;;;;;;;4996027;28;20081;-66
2024/02/20 16:16:22;;;;;;;59.75;6.13;;;;;;;;;;4996860;28;20057;-66
2024/02/20 16:19:22;;;;;;;67.93;7.97;;;;;;;;;;4997056;28;20064;-66
2024/02/20 16:22:19;;;;;;;60.00;6.53;;;;;;;;;;4996899;28;20050;-66
2024/02/20 16:25:07;;;;;;;64.30;8.07;;;;;;;;;;4998273;28;20050;-65
2024/02/20 16:28:00;;;;;;;104.43;9.23;;;;;;;;;;5000209;28;20500;-62
2024/02/20 16:30:48;;;;;;;103.55;9.32;;;;;;;;;;4997465;28;20052;-55
2024/02/20 16:33:42;;;;;;;70.85;8.45;;;;;;;;;;5001818;28;20052;-55
2024/02/20 16:36:29;;;;;;;82.55;8.48;;;;;;;;;;5002573;28;20180;-54
2024/02/20 16:39:22;;;;;;;83.32;8.55;;;;;;;;;;4997533;28;20148;-55
2024/02/20 16:42:10;;;;;;;116.07;11.70;;;;;;;;;;4990308;28;20080;-55
2024/02/20 16:45:04;;;;;;;106.93;8.98;;;;;;;;;;4997472;28;20466;-57
2024/02/20 16:47:51;;;;;;;92.90;9.48;;;;;;;;;;4987137;28;20084;-49
2024/02/20 16:50:46;;;;;;;121.72;10.68;;;;;;;;;;4985549;28;20802;-64
2024/02/20 16:53:33;;;;;;;116.00;9.93;;;;;;;;;;4993513;28;20050;-63
2024/02/20 16:56:27;;;;;;;119.40;10.35;;;;;;;;;;4990113;28;20398;-64
2024/02/20 16:59:14;;;;;;;99.63;11.23;;;;;;;;;;4991680;28;20502;-63